UPS708 KRDU-KRIC
Flight info
| Callsign | UPS708 |
|---|---|
| Flight time | N/A |
| Altitude | VFR/165 |
| Route | VFR EAST FF |
| Aircraft | B732/M-DOV/C |
Departure
| Time | N/A |
|---|---|
| Airport | Raleigh-Durham International Airport (KRDU) |
Arrival
| Time | 2026-04-29 22:42 |
|---|---|
| Airport | Richmond International Airport (KRIC) |
| Time | Latitude | Longitude | Altitude | Speed | Heading |
|---|---|---|---|---|---|
| 2026-04-29 22:29 | 37.64250 | -78.20376 | 14868 ft | 465 kts | 72° |
| 2026-04-29 22:30 | 37.65220 | -78.16557 | 14197 ft | 456 kts | 72° |
| 2026-04-29 22:30 | 37.66179 | -78.12794 | 13526 ft | 448 kts | 72° |
| 2026-04-29 22:30 | 37.67139 | -78.09068 | 12852 ft | 440 kts | 72° |
| 2026-04-29 22:30 | 37.68074 | -78.05437 | 12186 ft | 433 kts | 72° |
| 2026-04-29 22:31 | 37.68995 | -78.01829 | 11497 ft | 419 kts | 73° |
| 2026-04-29 22:31 | 37.69820 | -77.98454 | 10764 ft | 393 kts | 73° |
| 2026-04-29 22:31 | 37.70137 | -77.97147 | 10492 ft | 381 kts | 73° |
| 2026-04-29 22:31 | 37.70874 | -77.94087 | 9822 ft | 356 kts | 73° |
| 2026-04-29 22:32 | 37.71570 | -77.91190 | 9145 ft | 336 kts | 75° |
| 2026-04-29 22:32 | 37.71882 | -77.88368 | 8475 ft | 320 kts | 87° |
| 2026-04-29 22:32 | 37.71934 | -77.85606 | 7817 ft | 307 kts | 90° |
| 2026-04-29 22:32 | 37.71931 | -77.83015 | 7548 ft | 284 kts | 90° |
| 2026-04-29 22:33 | 37.71929 | -77.80647 | 7483 ft | 258 kts | 90° |
| 2026-04-29 22:33 | 37.71926 | -77.78482 | 7458 ft | 234 kts | 90° |
| 2026-04-29 22:33 | 37.71923 | -77.76464 | 7016 ft | 234 kts | 90° |
| 2026-04-29 22:33 | 37.71924 | -77.74413 | 6457 ft | 237 kts | 90° |
| 2026-04-29 22:34 | 37.71907 | -77.72324 | 5909 ft | 238 kts | 91° |
| 2026-04-29 22:34 | 37.71881 | -77.70216 | 5371 ft | 239 kts | 91° |
| 2026-04-29 22:34 | 37.71853 | -77.68124 | 4856 ft | 240 kts | 91° |
| 2026-04-29 22:34 | 37.71825 | -77.66013 | 4339 ft | 239 kts | 91° |
| 2026-04-29 22:35 | 37.71797 | -77.63925 | 3831 ft | 238 kts | 91° |
| 2026-04-29 22:35 | 37.71770 | -77.61865 | 3333 ft | 237 kts | 91° |
| 2026-04-29 22:35 | 37.71743 | -77.59766 | 2828 ft | 236 kts | 91° |
| 2026-04-29 22:35 | 37.71719 | -77.57744 | 2553 ft | 224 kts | 90° |
| 2026-04-29 22:36 | 37.71696 | -77.55855 | 2478 ft | 206 kts | 90° |
| 2026-04-29 22:36 | 37.71676 | -77.54018 | 2473 ft | 215 kts | 90° |
| 2026-04-29 22:36 | 37.71658 | -77.52141 | 2475 ft | 210 kts | 90° |
| 2026-04-29 22:36 | 37.71639 | -77.50327 | 2472 ft | 204 kts | 90° |
| 2026-04-29 22:37 | 37.71621 | -77.48561 | 2471 ft | 198 kts | 90° |
| 2026-04-29 22:37 | 37.71604 | -77.46854 | 2467 ft | 201 kts | 90° |
| 2026-04-29 22:37 | 37.71584 | -77.44963 | 2467 ft | 223 kts | 91° |
| 2026-04-29 22:37 | 37.71158 | -77.43053 | 2470 ft | 240 kts | 123° |
| 2026-04-29 22:38 | 37.70002 | -77.41430 | 2466 ft | 255 kts | 143° |
| 2026-04-29 22:38 | 37.68321 | -77.40627 | 2462 ft | 267 kts | 175° |
| 2026-04-29 22:38 | 37.66457 | -77.40709 | 2457 ft | 269 kts | 174° |
| 2026-04-29 22:38 | 37.64772 | -77.40028 | 2261 ft | 244 kts | 157° |
| 2026-04-29 22:39 | 37.63226 | -77.39296 | 1722 ft | 232 kts | 161° |
| 2026-04-29 22:39 | 37.61751 | -77.38702 | 1442 ft | 216 kts | 161° |
| 2026-04-29 22:39 | 37.60415 | -77.38107 | 1398 ft | 186 kts | 158° |
| 2026-04-29 22:39 | 37.59264 | -77.37523 | 1129 ft | 179 kts | 157° |
| 2026-04-29 22:40 | 37.58165 | -77.36929 | 957 ft | 157 kts | 155° |
| 2026-04-29 22:40 | 37.57232 | -77.36348 | 816 ft | 150 kts | 152° |
| 2026-04-29 22:40 | 37.56315 | -77.35729 | 789 ft | 150 kts | 150° |
| 2026-04-29 22:40 | 37.55375 | -77.35050 | 642 ft | 159 kts | 149° |
| 2026-04-29 22:41 | 37.54413 | -77.34360 | 597 ft | 159 kts | 150° |
| 2026-04-29 22:41 | 37.53436 | -77.33706 | 481 ft | 159 kts | 150° |
| 2026-04-29 22:41 | 37.52485 | -77.33002 | 321 ft | 155 kts | 148° |
| 2026-04-29 22:41 | 37.51587 | -77.32302 | 195 ft | 151 kts | 148° |
| 2026-04-29 22:42 | 37.50922 | -77.31780 | 166 ft | 145 kts | 148° |
| 2026-04-29 22:42 | 37.50470 | -77.31550 | 159 ft | 0 kts | 175° |